• Join FlightAware (Why Join?)
  • Login
  • US Flag 
12:00AM EDT


 

Airport Tracker/Info


-or-


 

Live Flight TrackerFlight Track Log ✈ CTL14 ✈ 24-Apr-2013 ✈ KOSU - KBAK

Flight Track Log - Related Links

Times and Time Zones

All times are in EDT time to prevent confusion due to time zone crossing. See the CTL14 flight status page for this flight to view local times or setup timezone preferences in your user account.

Time Position Orientation Groundspeed Altitude Reporting Facility
EDT Latitude Longitude Course Direction KTS MPH feet Rate Location/Type
03:08AM 39.9281 -83.1945 250° West  Level Estimated
03:09AM 39.9353 -83.2386 282° West  Level FlightAware Approximate
03:10AM 39.9249 -83.2816 250° West  Level Estimated
03:11AM 39.9152 -83.3249 254° West  Level FlightAware Approximate
03:12AM 39.9054 -83.3681 254° West  Level FlightAware Approximate
03:13AM 39.8956 -83.4114 254° West  Level FlightAware Approximate
03:14AM 39.8858 -83.4546 254° West  Level FlightAware Approximate
03:15AM 39.8759 -83.4978 253° West  Level FlightAware Approximate
03:16AM 39.8661 -83.5410 253° West  Level FlightAware Approximate
03:17AM 39.8562 -83.5842 253° West  Level FlightAware Approximate
03:18AM 39.8463 -83.6274 253° West  Level FlightAware Approximate
03:19AM 39.8364 -83.6705 253° West  Level FlightAware Approximate
03:20AM 39.8265 -83.7137 253° West  Level FlightAware Approximate
03:21AM 39.8166 -83.7568 253° West  Level FlightAware Approximate
03:22AM 39.8066 -83.7999 253° West  Level FlightAware Approximate
03:23AM 39.7967 -83.8430 253° West  Level FlightAware Approximate
03:24AM 39.7867 -83.8861 253° West  Level FlightAware Approximate
03:25AM 39.7767 -83.9292 253° West  Level FlightAware Approximate
03:26AM 39.7667 -83.9723 253° West  Level FlightAware Approximate
03:27AM 39.7567 -84.0154 253° West  Level FlightAware Approximate
03:28AM 39.7466 -84.0584 253° West  Level FlightAware Approximate
03:29AM 39.7366 -84.1014 253° West  Level FlightAware Approximate
03:30AM 39.7265 -84.1445 253° West  Level FlightAware Approximate
03:31AM 39.7164 -84.1875 253° West  Level FlightAware Approximate
03:32AM 39.7063 -84.2305 253° West  Level FlightAware Approximate
03:33AM 39.6962 -84.2735 253° West  Level FlightAware Approximate
03:34AM 39.6861 -84.3164 253° West  Level FlightAware Approximate
03:35AM 39.6759 -84.3594 253° West  Level FlightAware Approximate
03:36AM 39.6657 -84.4024 253° West  Level FlightAware Approximate
03:37AM 39.6555 -84.4453 253° West  Level FlightAware Approximate
03:38AM 39.6454 -84.4882 253° West  Level FlightAware Approximate
03:39AM 39.6351 -84.5311 253° West  Level FlightAware Approximate
03:40AM 39.6249 -84.5740 253° West  Level FlightAware Approximate
03:41AM 39.6147 -84.6169 253° West  Level FlightAware Approximate
03:42AM 39.6044 -84.6598 253° West  Level FlightAware Approximate
03:43AM 39.5929 -84.7021 249° West  Level Estimated
03:44AM 39.5809 -84.7442 250° West  Level FlightAware Approximate
03:45AM 39.5689 -84.7863 250° West  Level FlightAware Approximate
03:46AM 39.5568 -84.8283 250° West  Level FlightAware Approximate
03:47AM 39.5448 -84.8704 250° West  Level FlightAware Approximate
03:48AM 39.5327 -84.9124 250° West  Level FlightAware Approximate
03:49AM 39.5206 -84.9544 250° West  Level FlightAware Approximate
03:50AM 39.5085 -84.9964 250° West  Level FlightAware Approximate
03:51AM 39.4964 -85.0384 249° West  Level FlightAware Approximate
03:52AM 39.4842 -85.0803 249° West  Level FlightAware Approximate
03:53AM 39.4721 -85.1223 249° West  Level FlightAware Approximate
03:54AM 39.4599 -85.1642 249° West  Level FlightAware Approximate
03:55AM 39.4477 -85.2061 249° West  Level FlightAware Approximate
03:56AM 39.4355 -85.2480 249° West  Level FlightAware Approximate
03:57AM 39.4233 -85.2899 249° West  Level FlightAware Approximate
03:58AM 39.4111 -85.3318 249° West  Level FlightAware Approximate
03:59AM 39.4000 -85.3742 256° West  Level Estimated
04:00AM 39.3890 -85.4166 251° West  Level FlightAware Approximate
04:01AM 39.3779 -85.4590 248° West  Level Estimated
04:02AM 39.3655 -85.5008 249° West  Level FlightAware Approximate
04:03AM 39.3532 -85.5426 249° West  Level FlightAware Approximate
04:04AM 39.3408 -85.5844 249° West  Level FlightAware Approximate
04:05AM 39.3284 -85.6261 249° West  Level FlightAware Approximate
04:06AM 39.3160 -85.6679 249° West  Level FlightAware Approximate
04:07AM 39.3059 -85.7106 247° West  Level Estimated
04:08AM 39.2926 -85.7519 247° West  Level FlightAware Approximate
04:09AM 39.2835 -85.7950 247° West  Level Estimated
04:10AM 39.2743 -85.8381 247° West  Level Estimated
04:11AM 39.2652 -85.8811 247° West  Level Estimated
04:12AM 39.2500 -85.8833 247° West  Level FlightAware Approximate
04:13AM 39.2619 -85.8963 247° West  Level Estimated
04:14AM 39.2619 -85.8963 247° West  Level Estimated
04:15AM 39.2619 -85.8963 247° West  Level Estimated
04:16AM 39.2619 -85.8963 247° West  Level Estimated
04:17AM 39.2619 -85.8963 247° West  Level Estimated
04:18AM 39.2619 -85.8963 247° West  Level Estimated
04:19AM 39.2619 -85.8963 247° West  Level Estimated
04:20AM 39.2619 -85.8963 247° West  Level Estimated
04:21AM 39.2619 -85.8963 247° West  Level Estimated
04:22AM 39.2619 -85.8963 247° West  Level Estimated
04:23AM 39.2619 -85.8963 247° West  Level Estimated